createdAt,value
2023-05-19T02:11:19.524Z,9.30
2023-05-19T02:13:55.661Z,9.40
2023-05-19T02:16:27.503Z,9.30
2023-05-19T02:18:59.487Z,9.20
2023-05-19T02:21:26.347Z,9.30
2023-05-19T02:23:55.310Z,9.30
2023-05-19T02:26:26.838Z,9.30
2023-05-19T02:28:55.731Z,9.20
2023-05-19T03:20:49.161Z,8.90
2023-05-19T03:23:15.934Z,8.60
2023-05-19T03:25:42.699Z,8.60
2023-05-19T03:28:10.100Z,8.50
2023-05-19T03:30:37.191Z,8.40
2023-05-19T03:35:34.564Z,8.30
2023-05-19T03:38:01.296Z,8.20
2023-05-19T03:40:28.094Z,8.20
2023-05-19T03:42:54.814Z,8.30
2023-05-19T03:45:21.546Z,8.30
2023-05-19T03:47:48.314Z,8.20
2023-05-19T03:50:15.056Z,8.20
2023-05-19T03:52:45.398Z,8.30
2023-05-19T03:55:14.649Z,8.40
2023-05-19T03:57:43.325Z,8.30
2023-05-19T04:00:11.356Z,8.30
2023-05-19T04:02:38.333Z,8.00
2023-05-19T04:05:05.815Z,8.10
2023-05-19T04:07:37.342Z,7.90
2023-05-19T04:10:05.780Z,8.10
2023-05-19T04:12:34.742Z,8.10
2023-05-19T04:15:03.740Z,8.10
2023-05-19T04:17:30.613Z,8.10
2023-05-19T04:19:57.595Z,8.20
2023-05-19T04:22:24.397Z,8.20
2023-05-19T04:24:52.977Z,8.10
2023-05-19T04:27:19.703Z,8.10
2023-05-19T04:29:48.259Z,8.10
2023-05-19T04:32:17.605Z,8.20
2023-05-19T04:34:47.481Z,8.30
2023-05-19T04:37:14.229Z,8.40
2023-05-19T04:39:45.369Z,8.40
2023-05-19T04:42:14.509Z,8.40
2023-05-19T04:44:43.434Z,8.50
2023-05-19T04:47:10.357Z,8.50
2023-05-19T04:49:39.872Z,8.70
2023-05-19T04:52:08.233Z,8.80
2023-05-19T04:54:35.647Z,8.80
2023-05-19T04:59:29.679Z,8.90
2023-05-19T05:01:56.683Z,9.10
2023-05-19T05:04:24.063Z,9.10
2023-05-19T05:06:53.025Z,9.30
2023-05-19T05:09:20.008Z,9.30
2023-05-19T05:11:49.332Z,9.30
2023-05-19T05:14:16.490Z,9.40
2023-05-19T05:16:43.837Z,9.60
2023-05-19T05:19:11.110Z,9.80
2023-05-19T05:21:38.189Z,9.90
2023-05-19T05:24:05.345Z,10.00
2023-05-19T05:26:34.356Z,10.00
2023-05-19T05:29:04.071Z,10.10
2023-05-19T05:31:33.413Z,10.20
2023-05-19T05:34:02.402Z,10.30
2023-05-19T05:36:30.709Z,10.60
2023-05-19T05:38:59.387Z,10.60
2023-05-19T05:41:27.381Z,10.60
2023-05-19T05:43:54.160Z,10.70
2023-05-19T05:46:20.905Z,10.70
2023-05-19T05:48:48.083Z,10.80
2023-05-19T05:51:15.106Z,10.90
2023-05-19T05:56:11.313Z,10.90
2023-05-19T05:58:40.600Z,11.10
2023-05-19T06:01:11.081Z,11.10
2023-05-19T06:03:42.079Z,11.20
2023-05-19T06:06:08.822Z,11.30
2023-05-19T06:08:35.811Z,11.40
2023-05-19T06:11:09.056Z,11.50
2023-05-19T06:13:36.568Z,11.50
2023-05-19T06:16:03.553Z,11.60
2023-05-19T06:18:30.368Z,11.60
2023-05-19T06:20:57.328Z,11.70
2023-05-19T06:23:28.958Z,11.70
2023-05-19T06:25:56.409Z,11.70
2023-05-19T06:30:50.473Z,11.80
2023-05-19T06:33:19.410Z,11.90
2023-05-19T06:35:46.172Z,12.00
2023-05-19T06:38:12.898Z,12.00
2023-05-19T06:40:39.777Z,12.10
2023-05-19T06:43:06.573Z,12.20
2023-05-19T06:45:33.430Z,12.20
2023-05-19T06:48:00.646Z,12.30
2023-05-19T06:50:27.592Z,12.40
2023-05-19T06:52:54.454Z,12.50
2023-05-19T06:55:21.324Z,12.60
2023-05-19T06:57:50.643Z,12.50
2023-05-19T07:00:19.975Z,12.60
2023-05-19T07:02:49.057Z,12.60
2023-05-19T07:05:20.540Z,12.60
2023-05-19T07:07:47.300Z,12.70
2023-05-19T07:10:16.241Z,12.70
2023-05-19T07:12:45.616Z,12.70
2023-05-19T07:15:12.346Z,12.80
2023-05-19T07:42:23.902Z,13.60
2023-05-19T07:44:50.671Z,13.70
2023-05-19T07:47:17.403Z,13.80
2023-05-19T07:49:48.146Z,14.00
2023-05-19T07:52:19.058Z,14.00
2023-05-19T07:54:46.097Z,13.80
2023-05-19T07:57:14.481Z,13.80
2023-05-19T07:59:41.272Z,13.80
2023-05-19T08:02:10.420Z,13.80
2023-05-19T08:04:37.318Z,13.80
2023-05-19T08:07:04.195Z,14.00
2023-05-19T08:09:30.961Z,14.10
2023-05-19T08:12:01.514Z,14.30
2023-05-19T08:14:28.294Z,14.40
2023-05-19T08:16:55.014Z,14.50
2023-05-19T08:19:21.922Z,14.80
2023-05-19T08:21:49.694Z,15.00
2023-05-19T08:24:16.595Z,15.10
2023-05-19T08:29:13.372Z,15.30
2023-05-19T08:31:42.517Z,15.30
2023-05-19T08:34:09.437Z,15.30
2023-05-19T08:36:36.150Z,15.30
2023-05-19T08:39:05.052Z,15.30
2023-05-19T08:41:32.207Z,15.40
2023-05-19T08:43:59.615Z,15.40
2023-05-19T08:46:27.926Z,15.50
2023-05-19T08:49:01.445Z,15.40
2023-05-19T08:51:41.523Z,15.50
2023-05-19T08:54:18.264Z,15.50
2023-05-19T08:56:48.152Z,15.40
2023-05-19T08:59:15.888Z,15.30
2023-05-19T09:01:46.448Z,15.30
2023-05-19T09:04:17.022Z,15.40
2023-05-19T09:06:46.387Z,15.50
2023-05-19T09:11:46.453Z,15.80
2023-05-19T09:14:15.988Z,15.80
2023-05-19T09:16:43.404Z,15.90
2023-05-19T09:19:15.578Z,16.00
2023-05-19T09:24:27.078Z,16.30
2023-05-19T09:26:58.023Z,16.50
2023-05-19T09:29:26.655Z,16.40
2023-05-19T09:31:56.101Z,16.40
2023-05-19T09:34:26.825Z,16.30
2023-05-19T09:36:54.406Z,16.30
2023-05-19T09:39:23.373Z,16.40
2023-05-19T09:41:54.715Z,16.60
2023-05-19T09:44:28.806Z,16.60
2023-05-19T09:46:56.267Z,16.80
2023-05-19T09:49:24.627Z,17.00
2023-05-19T09:51:54.700Z,17.00
2023-05-19T09:54:27.502Z,16.90
2023-05-19T09:57:06.633Z,16.80
2023-05-19T09:59:35.747Z,16.90
2023-05-19T10:02:03.235Z,16.90
2023-05-19T10:04:31.060Z,16.80
2023-05-19T10:07:05.411Z,17.00
2023-05-19T10:09:35.999Z,17.10
2023-05-19T10:12:05.556Z,17.10
2023-05-19T10:14:34.676Z,17.30
2023-05-19T10:17:01.511Z,17.50
2023-05-19T10:19:29.328Z,17.70
2023-05-19T10:21:56.878Z,17.60
2023-05-19T10:24:23.669Z,17.60
2023-05-19T10:27:09.952Z,17.60
2023-05-19T10:29:40.538Z,17.50
2023-05-19T10:32:11.653Z,17.40
2023-05-19T10:35:04.793Z,17.40
2023-05-19T10:37:43.366Z,17.40
2023-05-19T11:30:57.589Z,19.30
2023-05-19T11:33:28.131Z,19.30
2023-05-19T11:35:59.568Z,19.40
2023-05-19T11:38:28.571Z,19.40
2023-05-19T11:40:56.405Z,19.30
2023-05-19T11:43:24.685Z,19.10
2023-05-19T11:45:51.935Z,19.00
2023-05-19T11:48:23.722Z,19.10
2023-05-19T11:50:51.051Z,19.30
2023-05-19T11:53:19.487Z,19.50
2023-05-19T11:55:47.219Z,19.70
2023-05-19T11:58:17.327Z,19.70
2023-05-19T12:00:47.368Z,19.70
2023-05-19T12:03:21.389Z,19.60
2023-05-19T12:05:49.555Z,19.50
2023-05-19T12:08:18.706Z,19.60
2023-05-19T12:10:49.517Z,19.70
2023-05-19T13:10:47.747Z,20.70
2023-05-19T13:13:17.290Z,20.70
2023-05-19T13:15:44.942Z,20.80
2023-05-19T13:18:13.341Z,20.80
2023-05-19T13:20:42.014Z,20.90
2023-05-19T13:23:11.091Z,21.00
2023-05-19T13:25:38.158Z,21.00
2023-05-19T13:28:05.871Z,21.00
2023-05-19T13:30:34.654Z,20.80
2023-05-19T13:33:02.322Z,20.90
2023-05-19T13:35:29.474Z,20.80
2023-05-19T13:37:56.273Z,20.60
2023-05-19T13:40:24.128Z,20.70
2023-05-19T13:42:53.343Z,20.90
2023-05-19T13:45:22.666Z,21.00
2023-05-19T13:47:51.916Z,21.10
2023-05-19T13:50:18.927Z,21.10
2023-05-19T15:07:10.995Z,20.90
2023-05-19T15:09:38.134Z,20.90
2023-05-19T15:12:05.070Z,20.90
2023-05-19T15:14:31.848Z,20.90
2023-05-19T15:17:01.287Z,21.00
2023-05-19T15:19:30.366Z,20.90
2023-05-19T15:21:57.299Z,20.70
2023-05-19T15:24:24.288Z,20.80
2023-05-19T15:26:51.981Z,20.80
2023-05-19T15:29:18.961Z,21.10
2023-05-19T15:31:45.967Z,21.10
2023-05-19T15:34:12.769Z,21.30
2023-05-19T15:36:42.009Z,21.30
2023-05-19T15:39:09.760Z,21.10
2023-05-19T15:41:36.628Z,20.90
2023-05-19T15:44:03.492Z,20.70
2023-05-19T15:46:30.618Z,20.70
2023-05-19T15:48:57.562Z,20.70
2023-05-19T15:51:24.835Z,20.80
2023-05-19T15:53:51.942Z,20.80
2023-05-19T15:56:22.498Z,20.80
2023-05-19T15:58:49.462Z,20.70
2023-05-19T16:01:17.173Z,20.60
2023-05-19T16:03:49.266Z,20.50
2023-05-19T16:06:18.788Z,20.70
2023-05-19T16:08:45.925Z,20.70
2023-05-19T16:11:15.618Z,20.70
2023-05-19T16:13:42.454Z,20.70
2023-05-19T16:16:09.484Z,20.70
2023-05-19T16:18:36.467Z,20.60
2023-05-19T16:21:03.464Z,20.40
2023-05-19T16:23:30.347Z,20.50
2023-05-19T16:25:57.622Z,20.50
2023-05-19T16:28:25.136Z,20.50
2023-05-19T16:30:52.194Z,20.40
2023-05-19T16:33:18.924Z,20.40
2023-05-19T16:35:45.876Z,20.40
2023-05-19T16:38:12.654Z,20.40
2023-05-19T16:40:39.478Z,20.40
2023-05-19T16:43:06.370Z,20.40
2023-05-19T16:45:33.422Z,20.40
2023-05-19T16:48:00.396Z,20.40
2023-05-19T16:50:27.284Z,20.30
2023-05-19T16:52:54.195Z,20.30
2023-05-19T16:55:25.346Z,20.20
2023-05-19T16:57:52.185Z,20.10
2023-05-19T17:00:19.263Z,20.10
2023-05-19T17:02:46.316Z,20.20
2023-05-19T17:05:13.225Z,20.10
2023-05-19T17:07:40.176Z,20.00
2023-05-19T17:10:07.534Z,20.00
2023-05-19T17:12:34.430Z,20.00
2023-05-19T17:15:01.556Z,20.20
2023-05-19T17:17:28.473Z,20.10
2023-05-19T17:19:55.288Z,20.00
2023-05-19T17:22:22.230Z,20.00
2023-05-19T17:24:51.841Z,20.00
2023-05-19T17:27:18.537Z,20.00
2023-05-19T17:29:45.596Z,20.10
2023-05-19T17:32:12.427Z,20.10
2023-05-19T17:34:41.864Z,20.10
2023-05-19T17:37:08.565Z,20.10
2023-05-19T17:39:37.648Z,20.10
2023-05-19T17:42:04.782Z,20.10
2023-05-19T17:44:31.717Z,20.10
2023-05-19T17:47:02.378Z,20.00
2023-05-19T17:49:29.302Z,20.10
2023-05-19T17:51:56.605Z,20.00
2023-05-19T17:54:26.115Z,20.00
2023-05-19T17:56:52.870Z,20.00
2023-05-19T17:59:19.819Z,20.00
2023-05-19T18:01:51.791Z,20.00
2023-05-19T18:04:18.851Z,19.90
2023-05-19T18:06:46.180Z,19.90
2023-05-19T18:09:14.297Z,19.90
2023-05-19T18:11:41.324Z,19.90
2023-05-19T18:14:08.064Z,19.90
2023-05-19T18:16:34.836Z,19.90
2023-05-19T18:19:04.076Z,19.80
2023-05-19T18:21:31.381Z,19.70
2023-05-19T18:24:03.029Z,19.80
2023-05-19T18:26:33.073Z,19.70
2023-05-19T18:29:04.819Z,19.70
2023-05-19T18:31:31.748Z,19.60
2023-05-19T18:33:58.515Z,19.50
2023-05-19T18:36:27.458Z,19.60
2023-05-19T18:38:58.164Z,19.60
2023-05-19T20:27:44.001Z,17.50
2023-05-19T20:30:13.415Z,17.50
2023-05-19T20:32:42.307Z,17.20
2023-05-19T20:35:11.446Z,17.10
2023-05-19T20:42:42.249Z,16.90
2023-05-19T20:45:16.784Z,16.80
2023-05-19T20:47:43.863Z,16.80
2023-05-19T20:50:11.027Z,16.70
2023-05-19T20:57:37.883Z,16.50
2023-05-19T21:00:05.141Z,16.50
2023-05-19T21:05:01.574Z,16.40
2023-05-19T21:07:28.471Z,16.50
2023-05-19T21:09:56.480Z,16.50
2023-05-19T21:12:25.307Z,16.50
2023-05-19T22:23:52.424Z,15.50
2023-05-19T22:26:19.254Z,15.50
2023-05-19T22:28:45.965Z,15.40
2023-05-19T22:31:14.976Z,15.20
2023-05-19T22:33:41.735Z,15.10
2023-05-19T22:36:10.912Z,15.20
2023-05-19T22:38:37.908Z,15.20
2023-05-19T22:41:04.853Z,15.10
2023-05-19T22:43:31.611Z,14.90
2023-05-19T22:45:58.406Z,15.10
2023-05-19T22:48:27.351Z,15.10
2023-05-19T22:50:54.156Z,15.10
2023-05-19T22:53:20.880Z,15.10
2023-05-19T22:55:47.637Z,15.10
2023-05-19T22:58:14.383Z,15.10
2023-05-19T23:00:43.517Z,15.20
2023-05-19T23:03:11.344Z,15.20
2023-05-19T23:05:38.171Z,15.20
2023-05-19T23:08:05.155Z,15.30
2023-05-19T23:10:31.955Z,15.30
2023-05-19T23:12:58.687Z,15.30
2023-05-19T23:15:27.818Z,15.40
2023-05-19T23:17:54.628Z,15.40
2023-05-19T23:20:21.423Z,15.40
2023-05-19T23:22:48.116Z,15.40
2023-05-19T23:25:17.183Z,15.30
2023-05-19T23:27:46.612Z,15.20
2023-05-19T23:30:13.408Z,15.20
2023-05-19T23:32:42.477Z,15.20
2023-05-19T23:35:10.910Z,15.20
2023-05-19T23:37:37.656Z,15.20
2023-05-19T23:40:05.373Z,15.20
2023-05-19T23:42:32.193Z,15.20
2023-05-19T23:45:01.304Z,15.20
2023-05-19T23:47:28.086Z,15.20
2023-05-19T23:49:57.083Z,15.20
2023-05-19T23:52:23.824Z,15.10
2023-05-19T23:54:50.614Z,15.10
2023-05-19T23:57:17.357Z,15.10
2023-05-19T23:59:44.240Z,15.10
